Time;durP1;ratioP1;P1;durP2;ratioP2;P2;SDS_P1;SDS_P2;PMS_P1;PMS_P2;Temp;Humidity;BMP_temperature;BMP_pressure;BME280_temperature;BME280_humidity;BME280_pressure;Samples;Min_cycle;Max_cycle;Signal;HPM_P1;HPM_P2
2022/09/26 00:02:05;;;;;;;4.37;3.83;;;;;;;12.98;78.03;98352.19;5091692;28;40641;-77
2022/09/26 00:04:32;;;;;;;4.23;3.73;;;;;;;12.95;78.21;98343.47;5091205;28;43806;-77
2022/09/26 00:07:00;;;;;;;3.53;3.10;;;;;;;12.96;78.61;98344.31;5074558;28;43309;-77
2022/09/26 00:09:28;;;;;;;5.00;3.40;;;;;;;12.98;78.55;98342.38;5092278;28;39942;-77
2022/09/26 00:11:57;;;;;;;6.67;4.00;;;;;;;13.00;78.47;98345.75;5091624;28;42711;-77
2022/09/26 00:14:27;;;;;;;5.30;3.47;;;;;;;13.01;78.21;98343.94;5090774;28;42765;-77
2022/09/26 00:16:55;;;;;;;5.00;3.80;;;;;;;13.01;78.06;98338.63;5092430;28;42047;-77
2022/09/26 00:19:23;;;;;;;5.67;3.60;;;;;;;13.01;78.57;98334.16;5091046;28;39867;-77
2022/09/26 00:21:51;;;;;;;5.67;4.00;;;;;;;13.05;78.64;98338.25;5074139;28;40701;-77
2022/09/26 00:24:19;;;;;;;4.87;3.57;;;;;;;13.06;78.73;98328.47;5073968;28;41966;-77
2022/09/26 00:26:47;;;;;;;4.30;3.67;;;;;;;13.07;78.57;98328.34;5074369;28;41118;-76
2022/09/26 00:29:17;;;;;;;5.10;3.87;;;;;;;12.77;78.70;98275.00;5073903;28;39881;-77
2022/09/26 00:31:46;;;;;;;4.73;3.67;;;;;;;13.08;78.33;98335.34;5090952;28;41726;-77
2022/09/26 00:34:16;;;;;;;5.17;4.50;;;;;;;13.07;78.74;98331.00;5090539;28;43570;-77
2022/09/26 00:36:43;;;;;;;4.17;3.30;;;;;;;13.07;78.62;98323.03;5074002;28;42435;-77
2022/09/26 00:39:13;;;;;;;4.30;3.73;;;;;;;13.02;78.62;98317.22;5090914;28;39902;-77
2022/09/26 00:41:42;;;;;;;4.50;3.67;;;;;;;12.99;78.27;98312.16;5073829;28;41864;-78
2022/09/26 00:44:46;;;;;;;5.90;4.60;;;;;;;13.03;78.65;98323.38;5090639;28;42945;-77
2022/09/26 00:47:44;;;;;;;7.40;4.60;;;;;;;12.98;78.85;98322.94;5091900;28;42202;-77
2022/09/26 00:50:19;;;;;;;5.23;4.40;;;;;;;12.82;78.78;98310.03;5043597;28;40046;-77
2022/09/26 00:52:52;;;;;;;4.90;4.23;;;;;;;12.88;78.94;98323.66;5074103;28;40601;-77
2022/09/26 00:55:24;;;;;;;5.63;3.77;;;;;;;12.86;79.03;98330.06;5073727;28;42924;-77
2022/09/26 00:57:56;;;;;;;5.30;3.03;;;;;;;12.82;78.67;98331.28;5088653;28;42026;-77
2022/09/26 01:00:24;;;;;;;4.73;3.43;;;;;;;12.76;78.92;98340.56;5061322;28;38760;-78
2022/09/26 01:02:54;;;;;;;5.17;3.50;;;;;;;12.70;78.74;98333.13;5057776;28;41809;-77
2022/09/26 01:05:24;;;;;;;4.27;3.47;;;;;;;12.63;79.17;98325.72;5071578;28;42546;-77
2022/09/26 01:07:54;;;;;;;4.87;3.53;;;;;;;12.56;78.82;98320.06;5090099;28;42984;-77
2022/09/26 01:10:23;;;;;;;6.23;3.17;;;;;;;12.48;79.11;98326.00;5074780;28;40113;-78
2022/09/26 01:12:51;;;;;;;4.40;3.30;;;;;;;12.41;79.13;98316.81;5093234;28;43097;-77
2022/09/26 01:15:20;;;;;;;4.17;3.30;;;;;;;12.35;79.11;98327.09;5076813;28;44084;-76
2022/09/26 01:17:50;;;;;;;4.40;3.93;;;;;;;12.28;79.14;98321.38;5094013;28;42375;-77
2022/09/26 01:20:28;;;;;;;5.07;3.83;;;;;;;12.23;79.34;98312.94;5076846;28;38871;-77
2022/09/26 01:23:15;;;;;;;5.97;4.33;;;;;;;12.15;79.58;98304.72;5092030;28;42777;-76
2022/09/26 01:26:04;;;;;;;4.97;4.13;;;;;;;12.10;79.88;98301.59;5076941;28;42736;-77
2022/09/26 01:28:51;;;;;;;4.40;3.97;;;;;;;12.04;80.22;98299.41;5077247;28;41495;-76
2022/09/26 01:31:27;;;;;;;5.27;3.80;;;;;;;12.04;79.65;98307.38;5077046;28;40036;-77
2022/09/26 01:34:04;;;;;;;4.00;3.33;;;;;;;11.93;79.72;98294.06;5077019;28;40668;-77
2022/09/26 01:36:54;;;;;;;5.77;4.00;;;;;;;11.99;79.85;98304.25;5076404;28;43418;-77
2022/09/26 01:39:50;;;;;;;8.20;4.03;;;;;;;11.98;79.99;98303.38;5094829;28;42569;-77
2022/09/26 01:42:26;;;;;;;6.13;4.30;;;;;;;11.88;79.97;98281.16;5076675;28;39029;-77
2022/09/26 01:45:01;;;;;;;6.30;4.53;;;;;;;12.01;80.06;98304.94;5093677;28;40927;-77
2022/09/26 01:47:40;;;;;;;6.27;4.53;;;;;;;12.04;80.23;98304.72;5090331;28;42538;-78
2022/09/26 01:50:15;;;;;;;7.80;4.23;;;;;;;11.76;80.41;98256.41;5093456;28;42984;-77
2022/09/26 01:52:48;;;;;;;5.53;4.10;;;;;;;12.06;80.35;98294.81;5076588;28;39168;-77
2022/09/26 01:55:21;;;;;;;5.17;4.13;;;;;;;12.00;80.12;98280.22;5076503;28;43545;-77
2022/09/26 01:57:55;;;;;;;5.40;4.30;;;;;;;12.17;80.07;98297.50;5091444;28;43719;-77
2022/09/26 02:00:23;;;;;;;5.13;3.90;;;;;;;12.21;79.64;98291.00;5076641;28;42237;-77
2022/09/26 02:02:56;;;;;;;4.20;3.80;;;;;;;12.23;79.43;98287.25;5093623;28;40082;-76
2022/09/26 02:05:31;;;;;;;6.57;3.90;;;;;;;12.15;79.48;98267.56;5075954;28;40630;-77
2022/09/26 02:08:05;;;;;;;5.33;4.07;;;;;;;12.27;79.29;98287.84;5076160;28;41742;-77
2022/09/26 02:10:36;;;;;;;5.63;3.70;;;;;;;12.26;79.29;98280.84;5090090;28;43140;-76
2022/09/26 02:13:09;;;;;;;4.20;3.10;;;;;;;12.28;79.23;98278.91;5076093;28;39044;-78
2022/09/26 02:15:39;;;;;;;4.83;3.93;;;;;;;12.14;78.96;98255.25;5090418;28;42815;-77
2022/09/26 02:18:14;;;;;;;4.07;3.67;;;;;;;12.29;79.53;98285.06;5093305;28;42770;-77
2022/09/26 02:20:50;;;;;;;5.93;3.63;;;;;;;12.29;79.35;98275.28;5075686;28;42041;-77
2022/09/26 02:23:18;;;;;;;4.67;3.50;;;;;;;12.30;79.40;98271.66;5075925;28;39119;-76
2022/09/26 02:25:46;;;;;;;4.43;3.37;;;;;;;12.32;79.00;98272.41;5092890;28;40650;-77
2022/09/26 02:28:15;;;;;;;3.90;3.50;;;;;;;12.32;78.81;98275.06;5092725;28;43757;-77
2022/09/26 02:30:46;;;;;;;4.10;3.10;;;;;;;12.33;79.00;98275.91;5076052;28;42374;-77
2022/09/26 02:33:17;;;;;;;5.20;3.40;;;;;;;12.32;79.03;98275.06;5076055;28;39450;-76
2022/09/26 02:35:57;;;;;;;5.10;2.80;;;;;;;12.25;78.66;98257.91;5075830;28;42010;-77
2022/09/26 02:38:36;;;;;;;6.17;3.47;;;;;;;12.21;78.89;98252.00;5091563;28;43041;-76
2022/09/26 02:41:33;;;;;;;3.40;3.03;;;;;;;12.34;78.93;98267.81;5093705;28;43180;-77
2022/09/26 02:44:28;;;;;;;4.53;3.33;;;;;;;12.33;78.63;98257.31;5075933;28;38356;-77
2022/09/26 02:47:22;;;;;;;3.53;2.90;;;;;;;12.31;79.03;98264.56;5075842;28;41034;-77
2022/09/26 02:50:14;;;;;;;2.87;2.63;;;;;;;12.27;79.00;98255.97;5092873;28;42719;-77
2022/09/26 02:52:54;;;;;;;6.20;3.33;;;;;;;12.30;79.08;98257.56;5092577;28;43520;-77
2022/09/26 02:55:39;;;;;;;4.33;3.10;;;;;;;12.31;78.89;98260.09;5089750;28;39702;-77
2022/09/26 02:58:19;;;;;;;4.60;3.10;;;;;;;12.32;79.23;98263.59;5075725;28;42547;-76
2022/09/26 03:00:58;;;;;;;4.80;3.23;;;;;;;12.32;79.07;98264.44;5075453;28;41326;-77
2022/09/26 03:03:33;;;;;;;4.20;3.47;;;;;;;12.32;79.36;98252.97;5090975;28;41969;-77
2022/09/26 03:06:06;;;;;;;3.70;3.13;;;;;;;12.33;79.08;98258.16;5089237;28;40399;-77
2022/09/26 03:08:39;;;;;;;5.20;3.20;;;;;;;12.32;78.88;98253.81;5091331;28;41420;-76
2022/09/26 03:11:10;;;;;;;3.43;3.13;;;;;;;12.32;78.75;98253.81;5075398;28;43215;-77
2022/09/26 03:13:40;;;;;;;10.33;3.53;;;;;;;12.30;79.08;98245.13;5091115;28;43029;-77
2022/09/26 03:16:11;;;;;;;3.47;2.83;;;;;;;12.30;79.08;98237.16;5075386;28;38497;-77
2022/09/26 03:18:44;;;;;;;4.87;3.07;;;;;;;12.18;79.31;98219.53;5075372;28;40613;-77
2022/09/26 03:21:14;;;;;;;3.20;2.80;;;;;;;11.93;79.14;98187.94;5089261;28;42452;-76
2022/09/26 03:23:42;;;;;;;3.87;2.87;;;;;;;12.11;79.09;98216.56;5091930;28;42223;-77
2022/09/26 03:26:13;;;;;;;3.57;3.17;;;;;;;12.08;79.41;98223.91;5092257;28;39767;-77
2022/09/26 03:28:52;;;;;;;5.17;3.40;;;;;;;11.97;79.64;98219.44;5091534;28;41418;-77
2022/09/26 03:31:21;;;;;;;3.17;2.87;;;;;;;11.90;79.46;98214.72;5091974;28;42772;-77
2022/09/26 03:33:58;;;;;;;3.23;2.30;;;;;;;11.80;79.46;98215.44;5091398;28;43244;-77
2022/09/26 03:36:28;;;;;;;4.43;2.90;;;;;;;11.76;79.38;98213.97;5093104;28;40143;-77
2022/09/26 03:38:56;;;;;;;3.17;2.80;;;;;;;11.72;79.55;98216.97;5075018;28;41809;-77
2022/09/26 03:41:42;;;;;;;2.40;2.20;;;;;;;11.63;79.80;98207.91;5091709;28;43265;-77
2022/09/26 03:44:20;;;;;;;2.83;2.40;;;;;;;11.57;79.70;98208.38;5091687;28;42263;-76
2022/09/26 03:47:17;;;;;;;5.17;2.90;;;;;;;11.50;79.78;98202.69;5091574;28;38617;-76
2022/09/26 03:49:49;;;;;;;4.40;2.50;;;;;;;11.44;79.75;98202.31;5088725;28;41341;-77
2022/09/26 03:52:18;;;;;;;3.20;2.67;;;;;;;11.39;79.68;98199.16;5074367;28;42480;-77
2022/09/26 03:54:46;;;;;;;5.57;3.00;;;;;;;11.33;79.87;98197.84;5091466;28;42129;-77
2022/09/26 03:57:16;;;;;;;3.53;3.17;;;;;;;11.28;79.55;98194.69;5074442;28;38882;-77
2022/09/26 03:59:54;;;;;;;5.00;3.43;;;;;;;11.24;79.97;98195.06;5074499;28;42929;-77
2022/09/26 04:02:21;;;;;;;4.00;3.00;;;;;;;11.17;79.90;98194.66;5091475;28;43753;-77
2022/09/26 04:04:58;;;;;;;4.37;3.03;;;;;;;11.15;80.32;98186.81;5091650;28;42099;-77
2022/09/26 04:07:27;;;;;;;3.83;3.00;;;;;;;11.12;80.33;98192.38;5091375;28;39941;-77
2022/09/26 04:09:55;;;;;;;4.20;3.07;;;;;;;11.08;80.55;98185.59;5091341;28;42996;-77
2022/09/26 04:12:22;;;;;;;4.93;2.87;;;;;;;11.07;80.31;98193.66;5074001;28;44063;-77
2022/09/26 04:14:50;;;;;;;4.90;3.57;;;;;;;11.03;80.31;98195.69;5074238;28;42324;-76
2022/09/26 04:17:19;;;;;;;3.80;3.30;;;;;;;11.01;80.64;98188.81;5091157;28;40622;-77
2022/09/26 04:19:48;;;;;;;4.17;3.00;;;;;;;10.99;80.57;98183.66;5091220;28;41664;-77
2022/09/26 04:22:15;;;;;;;3.10;2.80;;;;;;;10.97;80.93;98179.41;5090874;28;42814;-77
2022/09/26 04:24:46;;;;;;;4.13;2.60;;;;;;;10.95;80.87;98187.47;5091210;28;43076;-77
2022/09/26 04:27:15;;;;;;;3.60;3.23;;;;;;;10.91;80.89;98175.41;5073828;28;39796;-77
2022/09/26 04:29:46;;;;;;;7.10;3.23;;;;;;;10.90;81.17;98170.22;5091339;28;42482;-77
2022/09/26 04:32:34;;;;;;;4.00;2.77;;;;;;;10.87;81.00;98170.47;5087695;28;43768;-77
2022/09/26 04:35:20;;;;;;;4.57;2.77;;;;;;;10.82;80.69;98162.03;5090990;28;43021;-77
2022/09/26 04:37:50;;;;;;;5.13;2.63;;;;;;;10.81;80.75;98163.81;5090946;28;40943;-77
2022/09/26 04:40:21;;;;;;;4.30;3.37;;;;;;;10.78;80.48;98161.38;5091105;28;43994;-76
2022/09/26 04:43:02;;;;;;;5.20;2.80;;;;;;;10.75;80.58;98169.59;5073618;28;42750;-76
2022/09/26 04:45:29;;;;;;;4.63;2.70;;;;;;;10.72;80.37;98172.47;5073723;28;41319;-77
2022/09/26 04:47:57;;;;;;;3.10;2.80;;;;;;;10.69;80.49;98164.72;5090357;28;39808;-77
2022/09/26 04:50:27;;;;;;;4.73;3.40;;;;;;;10.66;80.54;98162.31;5088778;28;42501;-77
2022/09/26 04:53:11;;;;;;;5.60;2.90;;;;;;;10.64;80.51;98166.84;5073325;28;42042;-76
2022/09/26 04:55:46;;;;;;;5.37;3.63;;;;;;;10.61;81.09;98159.16;5073953;28;41383;-76
2022/09/26 04:58:16;;;;;;;5.17;3.80;;;;;;;10.59;81.36;98166.38;5088890;28;39666;-77
2022/09/26 05:00:48;;;;;;;4.47;3.70;;;;;;;10.57;81.37;98158.53;5090743;28;42706;-76
2022/09/26 05:03:23;;;;;;;5.83;3.90;;;;;;;10.56;80.95;98161.28;5073448;28;41693;-76
2022/09/26 05:05:50;;;;;;;7.63;4.27;;;;;;;10.53;81.45;98166.81;5073413;28;41656;-78
2022/09/26 05:08:18;;;;;;;6.60;3.90;;;;;;;10.51;81.03;98163.44;5090335;28;39117;-78
2022/09/26 05:10:53;;;;;;;4.30;3.90;;;;;;;10.48;81.12;98153.94;5073659;28;43578;-77
2022/09/26 05:13:21;;;;;;;7.97;4.77;;;;;;;10.46;81.22;98160.28;5073454;28;42919;-77
2022/09/26 05:15:53;;;;;;;5.37;4.37;;;;;;;10.44;81.28;98160.38;5073651;28;40905;-77
2022/09/26 05:18:22;;;;;;;5.27;4.77;;;;;;;10.34;81.90;98147.00;5089117;28;40917;-76
2022/09/26 05:20:50;;;;;;;5.67;4.60;;;;;;;10.39;81.59;98155.41;5090437;28;42680;-77
2022/09/26 05:26:22;;;;;;;5.87;5.23;;;;;;;10.37;81.60;98160.00;5086642;28;42493;-77
2022/09/26 05:28:53;;;;;;;6.47;5.60;;;;;;;10.36;81.62;98152.19;5089595;28;39944;-77
2022/09/26 05:31:27;;;;;;;8.10;5.37;;;;;;;10.35;81.83;98151.34;5090578;28;40416;-77
2022/09/26 05:33:56;;;;;;;5.73;5.13;;;;;;;10.35;81.66;98148.69;5090301;28;42461;-75
2022/09/26 05:36:24;;;;;;;5.97;5.37;;;;;;;10.34;81.99;98144.34;5072887;28;42023;-74
2022/09/26 05:38:53;;;;;;;7.90;5.93;;;;;;;10.35;81.98;98143.38;5072093;28;40149;-74
2022/09/26 05:41:22;;;;;;;8.17;6.57;;;;;;;10.37;81.84;98141.47;5089879;28;41611;-74
2022/09/26 05:43:50;;;;;;;6.67;6.00;;;;;;;10.40;81.77;98143.88;5072365;28;41329;-74
2022/09/26 05:46:18;;;;;;;6.77;5.57;;;;;;;10.43;81.73;98141.00;5089815;28;42570;-74
2022/09/26 05:48:50;;;;;;;9.93;7.40;;;;;;;10.47;81.99;98135.50;5088542;28;39979;-75
2022/09/26 05:51:22;;;;;;;10.23;7.50;;;;;;;10.47;82.42;98140.81;5086721;28;41810;-75
2022/09/26 05:53:50;;;;;;;11.03;8.43;;;;;;;10.36;82.08;98110.69;5072412;28;42526;-76
2022/09/26 05:56:22;;;;;;;9.30;8.30;;;;;;;10.52;82.17;98133.34;5088680;28;42151;-75
2022/09/26 05:59:00;;;;;;;12.20;9.53;;;;;;;10.52;82.63;98130.69;5093674;28;39992;-76
2022/09/26 06:01:47;;;;;;;10.47;8.63;;;;;;;10.58;82.55;98124.97;5093790;28;41753;-76
2022/09/26 06:04:28;;;;;;;11.53;9.30;;;;;;;10.60;82.17;98126.56;5093472;28;43731;-77
2022/09/26 06:07:12;;;;;;;12.60;9.20;;;;;;;10.55;82.35;98112.78;5076470;28;41176;-84
2022/09/26 06:09:40;;;;;;;11.57;9.17;;;;;;;10.60;82.34;98104.53;5043015;28;42457;-80
2022/09/26 06:12:23;;;;;;;11.90;9.33;;;;;;;10.64;82.10;98105.97;5093937;28;42171;-84
2022/09/26 06:14:53;;;;;;;10.50;8.70;;;;;;;10.80;82.15;98127.69;5073927;28;41915;-84
2022/09/26 06:17:21;;;;;;;12.07;9.23;;;;;;;10.94;82.01;98139.91;5057145;28;43879;-83
2022/09/26 06:19:49;;;;;;;13.73;9.80;;;;;;;11.04;81.49;98120.53;5084623;28;40876;-82
2022/09/26 06:22:16;;;;;;;11.37;9.10;;;;;;;11.39;81.38;98135.53;5094687;28;42651;-81
2022/09/26 06:24:44;;;;;;;13.37;10.37;;;;;;;11.53;80.94;98138.81;5072351;28;42660;-83
2022/09/26 06:27:15;;;;;;;12.17;9.87;;;;;;;11.58;80.83;98122.56;5070153;28;42362;-86
2022/09/26 06:29:43;;;;;;;12.37;9.03;;;;;;;11.82;80.37;98133.09;5108330;28;40223;-82
2022/09/26 06:32:12;;;;;;;13.03;10.10;;;;;;;11.89;79.76;98128.97;5093869;28;41652;-84
2022/09/26 06:34:46;;;;;;;12.53;9.33;;;;;;;11.83;79.80;98109.09;5093534;28;42352;-83
2022/09/26 06:37:41;;;;;;;11.60;9.93;;;;;;;11.93;79.38;98103.03;5076571;28;41666;-80
2022/09/26 06:40:10;;;;;;;12.73;10.47;;;;;;;12.15;78.75;98113.63;5076903;28;38787;-81
2022/09/26 06:42:38;;;;;;;11.27;9.50;;;;;;;12.27;78.51;98117.94;5076372;28;42040;-82
2022/09/26 06:45:26;;;;;;;12.77;10.27;;;;;;;12.44;78.07;98109.44;5110530;28;41174;-82
2022/09/26 06:48:28;;;;;;;11.77;9.23;;;;;;;12.46;77.39;98091.56;5080963;28;41203;-84
2022/09/26 06:51:01;;;;;;;13.30;8.23;;;;;;;12.73;76.91;98098.22;5076681;28;38891;-84
2022/09/26 06:53:31;;;;;;;12.53;9.10;;;;;;;12.89;76.63;98098.63;5072595;28;43739;-83
2022/09/26 06:55:59;;;;;;;12.90;8.80;;;;;;;13.10;76.31;98094.16;5072593;28;43141;-83
2022/09/26 06:58:27;;;;;;;11.83;8.50;;;;;;;13.41;74.98;98091.56;5080117;28;43218;-81
2022/09/26 07:01:06;;;;;;;11.50;8.33;;;;;;;14.81;70.97;98109.19;5090298;28;40032;-83
2022/09/26 07:04:05;;;;;;;8.57;7.43;;;;;;;16.69;65.13;98100.09;5092136;28;42632;-89
2022/09/26 07:06:37;;;;;;;7.90;6.97;;;;;;;18.12;61.59;98101.41;5077433;28;42290;-92
2022/09/26 07:09:16;;;;;;;8.87;6.77;;;;;;;20.61;54.84;98142.78;5093143;28;41778;-90
2022/09/26 07:12:18;;;;;;;10.33;6.13;;;;;;;22.14;51.63;98150.59;5070341;28;39309;-81
2022/09/26 07:14:46;;;;;;;6.60;5.60;;;;;;;23.37;47.58;98118.19;5075915;28;42129;-81
2022/09/26 07:17:32;;;;;;;5.93;5.40;;;;;;;25.10;43.97;98165.84;5077435;28;43263;-81
2022/09/26 07:20:20;;;;;;;6.27;5.13;;;;;;;25.79;43.10;98178.25;5096442;28;42232;-85
2022/09/26 07:23:17;;;;;;;5.30;4.73;;;;;;;26.72;41.49;98163.44;5091142;28;40805;-88
2022/09/26 07:25:47;;;;;;;5.33;4.60;;;;;;;26.35;41.47;98176.72;5058039;28;40778;-90
2022/09/26 07:28:15;;;;;;;4.57;4.13;;;;;;;25.49;40.58;98142.53;5063655;28;43180;-87
2022/09/26 07:30:48;;;;;;;4.80;4.40;;;;;;;25.21;41.66;98154.41;5095266;28;42991;-86
2022/09/26 07:33:35;;;;;;;5.20;4.70;;;;;;;24.56;41.95;98147.72;5094293;28;40023;-85
2022/09/26 07:36:09;;;;;;;4.80;4.00;;;;;;;25.13;40.64;98170.84;5091619;28;41795;-91
2022/09/26 07:38:37;;;;;;;5.03;4.37;;;;;;;24.60;41.55;98165.22;5091370;28;42509;-88
2022/09/26 07:41:10;;;;;;;6.83;4.43;;;;;;;23.20;43.29;98139.25;5055372;28;42656;-88
2022/09/26 07:44:14;;;;;;;4.60;4.20;;;;;;;21.80;46.06;98141.16;5085931;28;40887;-79
2022/09/26 07:52:38;;;;;;;7.07;4.73;;;;;;;20.31;49.25;98117.50;5072254;28;41173;-84
2022/09/26 07:55:22;;;;;;;5.67;4.00;;;;;;;19.77;50.61;98112.00;5092254;28;38825;-85
2022/09/26 07:58:07;;;;;;;5.00;4.43;;;;;;;19.30;51.77;98096.56;5092047;28;40555;-85
2022/09/26 08:00:39;;;;;;;6.30;4.50;;;;;;;18.89;52.92;98093.09;5092014;28;43032;-85
2022/09/26 08:03:17;;;;;;;5.37;4.83;;;;;;;18.54;53.30;98085.31;5075033;28;40944;-83
2022/09/26 08:05:45;;;;;;;5.40;4.30;;;;;;;18.55;54.37;98082.44;5074877;28;39920;-82
2022/09/26 08:08:14;;;;;;;4.27;3.87;;;;;;;19.65;53.49;98091.88;5071124;28;43251;-84
2022/09/26 08:11:01;;;;;;;4.00;3.60;;;;;;;20.87;50.92;98110.16;5072026;28;41914;-82
2022/09/26 08:13:57;;;;;;;10.37;4.60;;;;;;;20.75;48.57;98109.72;5051912;28;42685;-81
2022/09/26 08:16:40;;;;;;;5.47;4.60;;;;;;;21.66;48.10;98106.13;5055826;28;39003;-85
2022/09/26 08:19:10;;;;;;;6.27;3.70;;;;;;;21.71;48.06;98115.34;5102294;28;43380;-90
2022/09/26 08:21:37;;;;;;;3.80;3.37;;;;;;;21.68;48.51;98099.53;5074964;28;44818;-87
2022/09/26 08:24:08;;;;;;;3.20;2.90;;;;;;;22.46;47.75;98106.22;5071017;28;41418;-80
2022/09/26 08:26:56;;;;;;;4.07;2.90;;;;;;;24.48;43.33;98115.41;5055174;28;39033;-86
2022/09/26 08:29:31;;;;;;;3.67;2.37;;;;;;;24.19;41.92;98129.19;5070286;28;40796;-82
2022/09/26 08:32:01;;;;;;;5.00;2.87;;;;;;;23.61;42.98;98125.91;5091174;28;42726;-88
2022/09/26 08:34:31;;;;;;;2.33;2.13;;;;;;;24.74;40.55;98127.38;5108118;28;43280;-84
2022/09/26 08:37:36;;;;;;;4.27;1.90;;;;;;;26.67;36.92;98157.84;5053324;28;42339;-85
2022/09/26 08:40:31;;;;;;;3.77;1.80;;;;;;;27.36;36.23;98147.00;5053681;28;40860;-85
2022/09/26 08:43:31;;;;;;;2.33;1.77;;;;;;;28.27;35.76;98149.19;5071584;28;43365;-82
2022/09/26 08:46:37;;;;;;;2.40;1.87;;;;;;;29.39;32.61;98155.97;5091053;28;41061;-84
2022/09/26 08:49:58;;;;;;;2.00;1.80;;;;;;;28.25;33.85;98156.75;5089686;28;39579;-82
2022/09/26 08:52:30;;;;;;;4.10;1.70;;;;;;;26.81;36.28;98133.13;5124235;27;41893;-84
2022/09/26 08:55:01;;;;;;;3.13;2.00;;;;;;;25.64;37.25;98125.06;5070988;28;41716;-85
2022/09/26 08:57:38;;;;;;;2.40;1.80;;;;;;;24.45;38.76;98099.59;5054052;28;41223;-83
2022/09/26 09:00:17;;;;;;;2.40;1.90;;;;;;;24.44;38.83;98113.31;5054089;28;40335;-83
2022/09/26 09:03:05;;;;;;;3.97;2.00;;;;;;;25.48;38.28;98108.34;5089214;28;41105;-88
2022/09/26 09:05:37;;;;;;;1.93;1.63;;;;;;;25.79;37.84;98105.84;5073508;28;42946;-88
2022/09/26 09:08:13;;;;;;;4.03;1.80;;;;;;;25.64;37.92;98094.38;5090855;28;42381;-84
2022/09/26 09:11:00;;;;;;;2.40;1.80;;;;;;;25.12;37.65;98095.19;5088587;28;40043;-86
2022/09/26 09:13:55;;;;;;;4.30;1.80;;;;;;;25.18;37.90;98106.03;5091681;28;41816;-85
2022/09/26 09:17:02;;;;;;;3.40;1.80;;;;;;;24.39;38.52;98059.78;5091848;28;43999;-86
2022/09/26 09:19:56;;;;;;;2.10;1.30;;;;;;;23.76;40.22;98088.78;5089199;28;42301;-84
2022/09/26 09:23:21;;;;;;;2.63;1.50;;;;;;;22.76;40.96;98059.22;5073585;28;38354;-84
2022/09/26 09:26:05;;;;;;;2.10;1.53;;;;;;;22.12;42.76;98056.44;5074171;28;40896;-81
2022/09/26 09:28:50;;;;;;;2.30;1.80;;;;;;;21.83;44.05;98043.78;5070376;28;42849;-88
2022/09/26 09:31:22;;;;;;;3.20;2.17;;;;;;;21.93;44.16;98059.66;5056321;28;41120;-83
2022/09/26 09:34:25;;;;;;;2.07;1.50;;;;;;;21.79;44.99;98042.47;5087149;28;40203;-88
2022/09/26 09:37:29;;;;;;;2.10;1.90;;;;;;;21.56;46.29;98030.94;5072126;28;43863;-82
2022/09/26 09:40:18;;;;;;;2.77;1.80;;;;;;;21.40;45.79;98037.34;5077433;28;43279;-83
2022/09/26 09:43:01;;;;;;;2.07;1.70;;;;;;;21.52;45.99;98032.31;5093074;28;42315;-83
2022/09/26 09:45:36;;;;;;;3.90;1.97;;;;;;;21.71;45.13;98045.25;5077994;28;39042;-80
2022/09/26 09:48:09;;;;;;;3.40;1.47;;;;;;;21.69;44.31;98036.53;5073047;28;41044;-82
2022/09/26 09:50:44;;;;;;;2.23;1.50;;;;;;;21.51;45.78;98038.75;5056828;28;41834;-83
2022/09/26 09:53:29;;;;;;;3.60;1.87;;;;;;;21.12;46.56;98038.94;5112327;27;43208;-82
2022/09/26 09:56:10;;;;;;;2.77;1.40;;;;;;;20.63;46.75;98023.22;5110829;28;39040;-81
2022/09/26 09:58:53;;;;;;;3.43;2.03;;;;;;;20.24;48.01;98007.13;5091947;28;42488;-85
2022/09/26 10:01:30;;;;;;;4.53;2.10;;;;;;;20.19;48.63;97996.06;5077171;28;44406;-86
2022/09/26 10:04:11;;;;;;;2.77;2.00;;;;;;;20.23;48.84;97983.94;5073317;28;41476;-86
2022/09/26 10:06:40;;;;;;;1.70;1.40;;;;;;;20.72;48.14;97999.75;5090456;28;39423;-83
2022/09/26 10:09:19;;;;;;;3.03;1.90;;;;;;;21.00;47.19;97995.47;5069914;28;40764;-85
2022/09/26 10:12:18;;;;;;;1.70;1.37;;;;;;;21.15;46.82;98009.78;5092368;28;41704;-87
2022/09/26 10:15:18;;;;;;;2.63;1.60;;;;;;;20.80;46.71;98007.75;5093820;28;41174;-82
2022/09/26 10:18:06;;;;;;;3.47;1.73;;;;;;;20.39;47.68;97986.56;5092607;28;40385;-82
2022/09/26 10:20:51;;;;;;;2.30;1.67;;;;;;;21.09;47.42;97999.75;5090711;28;42639;-82
2022/09/26 10:23:25;;;;;;;2.73;1.80;;;;;;;21.43;46.06;98003.81;5092508;28;42776;-80
2022/09/26 10:26:02;;;;;;;1.70;1.50;;;;;;;21.15;45.70;98015.16;5090295;28;43177;-81
2022/09/26 10:28:36;;;;;;;2.23;1.67;;;;;;;20.86;45.80;98006.19;5109358;28;39181;-80
2022/09/26 10:31:08;;;;;;;2.60;1.50;;;;;;;20.43;46.39;97978.97;5110827;28;40475;-85
2022/09/26 10:33:58;;;;;;;3.07;1.50;;;;;;;21.45;46.22;97994.53;5072653;28;41667;-80
2022/09/26 10:36:32;;;;;;;1.50;1.30;;;;;;;23.03;42.95;98011.72;5087240;28;43165;-84
2022/09/26 10:41:58;;;;;;;1.80;1.30;;;;;;;22.98;43.29;98000.69;5076105;28;40687;-85
2022/09/26 10:44:32;;;;;;;1.53;1.43;;;;;;;22.55;42.94;97984.47;5109825;28;42346;-85
2022/09/26 10:47:13;;;;;;;1.60;1.30;;;;;;;22.89;41.90;98007.22;5093288;28;41685;-84
2022/09/26 10:50:20;;;;;;;1.20;1.10;;;;;;;25.49;39.14;98006.97;5054798;28;39073;-85
2022/09/26 10:53:07;;;;;;;1.20;1.10;;;;;;;28.18;35.44;98019.88;5087951;28;40666;-85
2022/09/26 10:55:59;;;;;;;1.20;0.93;;;;;;;30.52;31.90;98038.19;5076383;28;41893;-88
2022/09/26 10:58:29;;;;;;;4.77;1.37;;;;;;;31.73;29.08;98055.13;5109250;28;41115;-84
2022/09/26 11:01:03;;;;;;;1.37;1.00;;;;;;;31.87;28.58;98045.47;5110421;28;40409;-82
2022/09/26 11:03:40;;;;;;;1.67;1.10;;;;;;;30.10;28.89;98040.31;5092059;28;41343;-84
2022/09/26 11:06:32;;;;;;;1.00;0.90;;;;;;;28.83;30.10;98029.03;5092450;28;41947;-83
2022/09/26 11:09:09;;;;;;;1.57;1.20;;;;;;;27.93;30.93;98021.81;5071965;28;43099;-82
2022/09/26 11:11:56;;;;;;;1.60;1.00;;;;;;;26.36;32.55;97999.22;5072625;28;38877;-82
2022/09/26 11:14:29;;;;;;;0.70;0.70;;;;;;;25.31;34.58;97984.09;5070551;28;42190;-84
2022/09/26 11:17:12;;;;;;;1.57;0.80;;;;;;;24.40;35.81;97969.44;5075653;28;42440;-87
2022/09/26 11:19:48;;;;;;;1.07;0.80;;;;;;;23.51;36.75;97958.66;5072017;28;41398;-85
2022/09/26 11:22:24;;;;;;;2.63;1.10;;;;;;;23.02;38.36;97968.69;5055465;28;38910;-84
2022/09/26 11:25:03;;;;;;;2.40;1.40;;;;;;;22.38;39.18;97956.06;5074290;28;40502;-83
2022/09/26 11:27:41;;;;;;;1.13;0.90;;;;;;;22.39;39.13;97944.25;5109645;28;42087;-84
2022/09/26 11:30:13;;;;;;;1.80;0.93;;;;;;;22.87;39.66;97960.72;5075241;28;41192;-82
2022/09/26 11:32:51;;;;;;;0.90;0.80;;;;;;;23.69;39.13;97950.03;5091952;28;40175;-84
2022/09/26 11:35:48;;;;;;;1.23;0.90;;;;;;;23.52;38.74;97938.72;5090015;28;41573;-83
2022/09/26 11:38:37;;;;;;;3.07;1.00;;;;;;;23.20;39.04;97945.56;5071528;28;41774;-82
2022/09/26 11:41:35;;;;;;;3.40;1.20;;;;;;;22.75;41.32;97929.84;5105829;28;43209;-80
2022/09/26 11:44:21;;;;;;;1.80;1.33;;;;;;;22.23;41.77;97922.94;5066740;28;39148;-83
2022/09/26 11:47:37;;;;;;;2.07;1.43;;;;;;;21.56;44.08;97885.44;5091935;28;41114;-83
2022/09/26 11:50:38;;;;;;;1.53;1.00;;;;;;;21.61;44.36;97893.81;5074812;28;42701;-83
2022/09/26 11:53:54;;;;;;;2.63;1.00;;;;;;;24.83;39.94;97902.22;5088198;28;41518;-82
2022/09/26 11:56:41;;;;;;;4.10;1.10;;;;;;;24.38;38.98;97919.25;5074711;28;38979;-84
2022/09/26 11:59:28;;;;;;;2.13;1.10;;;;;;;23.33;40.31;97895.34;5088787;28;42682;-86
2022/09/26 12:02:14;;;;;;;1.10;1.00;;;;;;;22.96;41.09;97910.94;5074575;28;41851;-78
2022/09/26 12:04:55;;;;;;;1.43;1.17;;;;;;;23.04;41.16;97897.25;5088094;28;42356;-83
2022/09/26 12:07:36;;;;;;;0.97;0.80;;;;;;;25.17;38.22;97909.28;5090518;28;41199;-81
2022/09/26 12:10:14;;;;;;;2.03;1.20;;;;;;;28.20;33.95;97923.25;5088098;28;42046;-85
2022/09/26 12:13:06;;;;;;;0.90;0.80;;;;;;;30.84;31.16;97925.59;5090578;28;43718;-83
2022/09/26 12:15:43;;;;;;;2.20;0.83;;;;;;;31.02;29.41;97931.66;5091816;28;42973;-85
2022/09/26 12:18:19;;;;;;;1.57;1.10;;;;;;;29.42;30.55;97923.63;5074038;28;38855;-87
2022/09/26 12:21:00;;;;;;;1.73;0.97;;;;;;;28.31;31.69;97913.50;5091827;28;40807;-82
2022/09/26 12:23:36;;;;;;;1.50;1.10;;;;;;;28.05;32.09;97884.72;5073802;28;41793;-84
2022/09/26 12:26:13;;;;;;;1.43;0.80;;;;;;;27.12;33.30;97884.16;5074562;28;41821;-82
2022/09/26 12:29:04;;;;;;;0.70;0.70;;;;;;;26.99;34.18;97884.28;5088305;28;39973;-83
2022/09/26 12:31:49;;;;;;;1.87;0.90;;;;;;;28.37;32.42;97868.16;5091429;28;41824;-85
2022/09/26 12:34:31;;;;;;;1.60;1.10;;;;;;;28.31;32.14;97878.09;5087800;28;43767;-81